Station Historical Data
Daily Summary for May 29, 2017 Units:  English    Metric   Both
« Previous Day
Next Day »
Daily Weekly Monthly Yearly Custom
  High: Low: Average:
Temperature: 72.1 °F 59.1 °F 65.1 °F
Dew Point: 60.2 °F 44.0 °F 55.6 °F
Humidity: 93% 37% 74%
Wind Speed: 13.0mph 0.0mph 3.8mph
Wind Gust: 21.0mph - -
Wind- - SW
Pressure: 29.88 in 29.66 in -
Precipitation: 0.00 in    
Historical Graphs
 
 
Tabular Data for May 29, 2017
Time Temperature Dew Point Pressure Wind Wind Speed Wind Gust Humidity Rainfall Rate (Hourly)
00:04 66.4 °F 59.3 °F 29.70 in SW 2.0 mph 6.0 mph 78% 0.00 in
00:09 66.4 °F 59.3 °F 29.70 in SSW 3.0 mph 6.0 mph 78% 0.00 in
00:14 66.4 °F 59.3 °F 29.70 in SSW 2.0 mph 4.0 mph 78% 0.00 in
00:19 66.4 °F 59.3 °F 29.70 in SSW 1.0 mph 5.0 mph 78% 0.00 in
00:24 66.3 °F 59.2 °F 29.70 in SSW 3.0 mph 7.0 mph 78% 0.00 in
00:29 66.3 °F 59.2 °F 29.70 in WSW 6.0 mph 8.0 mph 78% 0.00 in
00:34 66.3 °F 59.2 °F 29.69 in SW 4.0 mph 8.0 mph 78% 0.00 in
00:39 66.3 °F 59.2 °F 29.69 in SW 4.0 mph 8.0 mph 78% 0.00 in
00:44 66.3 °F 59.2 °F 29.69 in SW 4.0 mph 9.0 mph 78% 0.00 in
00:49 66.2 °F 59.5 °F 29.69 in SSW 2.0 mph 5.0 mph 79% 0.00 in
00:54 66.2 °F 59.5 °F 29.69 in WSW 4.0 mph 7.0 mph 79% 0.00 in
00:59 66.1 °F 59.4 °F 29.69 in SW 3.0 mph 6.0 mph 79% 0.00 in
01:04 66.0 °F 59.3 °F 29.69 in SSW 3.0 mph 7.0 mph 79% 0.00 in
01:09 65.9 °F 59.2 °F 29.68 in South 1.0 mph 6.0 mph 79% 0.00 in
01:14 65.8 °F 59.1 °F 29.68 in South 2.0 mph 5.0 mph 79% 0.00 in
01:19 65.8 °F 59.1 °F 29.68 in South 2.0 mph 5.0 mph 79% 0.00 in
01:24 65.7 °F 59.4 °F 29.67 in SE 1.0 mph 5.0 mph 80% 0.00 in
01:29 65.6 °F 59.3 °F 29.67 in SE 1.0 mph 3.0 mph 80% 0.00 in
01:34 65.5 °F 59.2 °F 29.67 in South 1.0 mph 3.0 mph 80% 0.00 in
01:39 65.3 °F 59.0 °F 29.66 in South 1.0 mph 4.0 mph 80% 0.00 in
01:44 65.3 °F 59.0 °F 29.66 in South 1.0 mph 4.0 mph 80% 0.00 in
01:49 65.2 °F 59.2 °F 29.66 in SSW 1.0 mph 4.0 mph 81% 0.00 in
01:54 65.2 °F 59.2 °F 29.66 in SSW 1.0 mph 4.0 mph 81% 0.00 in
01:59 65.2 °F 59.2 °F 29.66 in Calm   4.0 mph 81% 0.00 in
02:04 65.1 °F 59.1 °F 29.66 in SW 1.0 mph 4.0 mph 81% 0.00 in
02:09 64.9 °F 58.9 °F 29.66 in Calm   3.0 mph 81% 0.00 in
02:14 64.9 °F 59.3 °F 29.66 in SSW 1.0 mph 4.0 mph 82% 0.00 in
02:19 64.8 °F 59.2 °F 29.67 in Calm   4.0 mph 82% 0.00 in
02:24 64.8 °F 59.2 °F 29.67 in SSW 2.0 mph 4.0 mph 82% 0.00 in
02:29 64.8 °F 59.2 °F 29.66 in Calm   3.0 mph 82% 0.00 in
02:34 64.8 °F 59.2 °F 29.67 in SSW 1.0 mph 3.0 mph 82% 0.00 in
02:39 64.7 °F 59.4 °F 29.67 in SW 1.0 mph 3.0 mph 83% 0.00 in
02:44 64.6 °F 59.3 °F 29.67 in SW 2.0 mph 3.0 mph 83% 0.00 in
02:49 64.5 °F 59.2 °F 29.67 in SW 1.0 mph 6.0 mph 83% 0.00 in
02:54 64.5 °F 59.2 °F 29.68 in SW 1.0 mph 6.0 mph 83% 0.00 in
02:59 64.5 °F 59.6 °F 29.68 in SW 2.0 mph 5.0 mph 84% 0.00 in
03:04 64.5 °F 59.6 °F 29.68 in Calm   4.0 mph 84% 0.00 in
03:09 64.5 °F 59.6 °F 29.69 in SW 2.0 mph 4.0 mph 84% 0.00 in
03:14 64.5 °F 59.6 °F 29.69 in Calm   4.0 mph 84% 0.00 in
03:19 64.4 °F 59.5 °F 29.69 in SSW 3.0 mph 3.0 mph 84% 0.00 in
03:24 64.3 °F 59.7 °F 29.69 in SSW 1.0 mph 4.0 mph 85% 0.00 in
03:29 64.2 °F 59.6 °F 29.70 in Calm   3.0 mph 85% 0.00 in
03:34 64.2 °F 59.6 °F 29.69 in Calm   2.0 mph 85% 0.00 in
03:39 64.1 °F 59.8 °F 29.69 in SW 1.0 mph 5.0 mph 86% 0.00 in
03:44 64.0 °F 59.7 °F 29.69 in SW 1.0 mph 5.0 mph 86% 0.00 in
03:49 64.0 °F 59.7 °F 29.69 in SW 2.0 mph 5.0 mph 86% 0.00 in
03:54 63.9 °F 59.6 °F 29.69 in SW 2.0 mph 4.0 mph 86% 0.00 in
03:59 63.9 °F 59.6 °F 29.69 in SW 3.0 mph 4.0 mph 86% 0.00 in
04:04 63.8 °F 59.9 °F 29.69 in SW 1.0 mph 3.0 mph 87% 0.00 in
04:09 63.8 °F 59.9 °F 29.69 in SW 1.0 mph 4.0 mph 87% 0.00 in
04:14 63.7 °F 59.8 °F 29.69 in WSW 1.0 mph 5.0 mph 87% 0.00 in
04:19 63.7 °F 59.8 °F 29.69 in WSW 2.0 mph 5.0 mph 87% 0.00 in
04:24 63.7 °F 60.1 °F 29.69 in WSW 3.0 mph 5.0 mph 88% 0.00 in
04:29 63.6 °F 59.7 °F 29.69 in WSW 3.0 mph 6.0 mph 87% 0.00 in
04:34 63.4 °F 59.5 °F 29.69 in WSW 3.0 mph 4.0 mph 87% 0.00 in
04:39 63.1 °F 59.2 °F 29.70 in WSW 3.0 mph 7.0 mph 87% 0.00 in
04:44 62.7 °F 58.8 °F 29.70 in West 2.0 mph 7.0 mph 87% 0.00 in
04:49 62.4 °F 58.5 °F 29.70 in WSW 3.0 mph 7.0 mph 87% 0.00 in
04:54 62.2 °F 58.3 °F 29.70 in SW 3.0 mph 6.0 mph 87% 0.00 in
04:59 62.0 °F 58.1 °F 29.70 in WSW 5.0 mph 7.0 mph 87% 0.00 in
05:04 61.9 °F 58.0 °F 29.70 in WSW 3.0 mph 6.0 mph 87% 0.00 in
05:09 61.7 °F 57.8 °F 29.70 in SW 3.0 mph 6.0 mph 87% 0.00 in
05:14 61.5 °F 57.6 °F 29.70 in SW 4.0 mph 8.0 mph 87% 0.00 in
05:19 61.3 °F 57.7 °F 29.70 in WSW 5.0 mph 9.0 mph 88% 0.00 in
05:24 61.1 °F 57.5 °F 29.70 in SW 5.0 mph 9.0 mph 88% 0.00 in
05:29 61.0 °F 57.4 °F 29.70 in SW 5.0 mph 9.0 mph 88% 0.00 in
05:34 60.8 °F 57.2 °F 29.70 in WNW 6.0 mph 14.0 mph 88% 0.00 in
05:39 60.7 °F 57.4 °F 29.70 in WSW 2.0 mph 8.0 mph 89% 0.00 in
05:44 60.6 °F 57.3 °F 29.70 in WSW 4.0 mph 9.0 mph 89% 0.01 in
05:49 60.5 °F 57.2 °F 29.70 in WSW 5.0 mph 6.0 mph 89% 0.01 in
05:54 60.4 °F 57.1 °F 29.71 in SW 3.0 mph 8.0 mph 89% 0.01 in
05:59 60.4 °F 57.5 °F 29.71 in SW 3.0 mph 8.0 mph 90% 0.02 in
06:04 60.5 °F 57.6 °F 29.71 in West 3.0 mph 5.0 mph 90% 0.02 in
06:09 60.5 °F 57.6 °F 29.72 in WSW 3.0 mph 6.0 mph 90% 0.02 in
06:14 60.4 °F 57.5 °F 29.72 in WSW 3.0 mph 8.0 mph 90% 0.02 in
06:19 60.4 °F 57.5 °F 29.73 in WSW 4.0 mph 9.0 mph 90% 0.02 in
06:24 60.3 °F 57.4 °F 29.73 in WSW 4.0 mph 10.0 mph 90% 0.03 in
06:29 60.3 °F 57.7 °F 29.74 in WSW 4.0 mph 10.0 mph 91% 0.03 in
06:34 60.3 °F 57.7 °F 29.74 in WSW 3.0 mph 8.0 mph 91% 0.03 in
06:39 60.3 °F 57.7 °F 29.73 in WSW 3.0 mph 6.0 mph 91% 0.03 in
06:44 60.3 °F 57.7 °F 29.73 in SW 5.0 mph 6.0 mph 91% 0.03 in
06:49 60.2 °F 57.6 °F 29.73 in SW 3.0 mph 6.0 mph 91% 0.03 in
06:54 60.2 °F 57.6 °F 29.73 in South 2.0 mph 4.0 mph 91% 0.04 in
06:59 60.0 °F 57.4 °F 29.73 in SW 4.0 mph 7.0 mph 91% 0.03 in
07:04 60.0 °F 57.7 °F 29.73 in SW 1.0 mph 6.0 mph 92% 0.04 in
07:09 59.9 °F 57.6 °F 29.74 in SW 3.0 mph 8.0 mph 92% 0.04 in
07:14 59.9 °F 57.6 °F 29.74 in SW 3.0 mph 8.0 mph 92% 0.04 in
07:19 59.9 °F 57.6 °F 29.74 in SW 3.0 mph 5.0 mph 92% 0.07 in
07:24 59.9 °F 57.6 °F 29.74 in WSW 2.0 mph 5.0 mph 92% 0.07 in
07:29 60.0 °F 57.7 °F 29.74 in SW 3.0 mph 6.0 mph 92% 0.08 in
07:34 60.0 °F 57.7 °F 29.74 in WSW 1.0 mph 5.0 mph 92% 0.13 in
07:39 60.0 °F 57.7 °F 29.74 in WSW 2.0 mph 5.0 mph 92% 0.16 in
07:44 60.0 °F 57.7 °F 29.74 in WSW 2.0 mph 6.0 mph 92% 0.18 in
07:49 60.1 °F 57.8 °F 29.74 in SW 2.0 mph 5.0 mph 92% 0.19 in
07:54 60.1 °F 57.8 °F 29.74 in SW 3.0 mph 4.0 mph 92% 0.20 in
07:59 60.0 °F 57.7 °F 29.74 in SSW 2.0 mph 5.0 mph 92% 0.22 in
08:04 60.0 °F 58.0 °F 29.74 in SW 2.0 mph 7.0 mph 93% 0.23 in
08:09 60.3 °F 58.3 °F 29.74 in SW 2.0 mph 4.0 mph 93% 0.23 in
08:14 60.4 °F 58.4 °F 29.74 in SW 2.0 mph 5.0 mph 93% 0.24 in
08:19 60.6 °F 58.6 °F 29.75 in SW 2.0 mph 6.0 mph 93% 0.21 in
08:24 60.6 °F 58.6 °F 29.75 in SW 2.0 mph 6.0 mph 93% 0.20 in
08:29 61.0 °F 59.0 °F 29.75 in WSW 2.0 mph 4.0 mph 93% 0.19 in
08:34 61.1 °F 59.1 °F 29.75 in WSW 1.0 mph 5.0 mph 93% 0.15 in
08:39 61.3 °F 59.3 °F 29.75 in WSW 4.0 mph 4.0 mph 93% 0.12 in
08:44 61.4 °F 59.4 °F 29.75 in SW 2.0 mph 6.0 mph 93% 0.09 in
08:49 61.4 °F 59.4 °F 29.75 in SW 3.0 mph 6.0 mph 93% 0.08 in
08:54 61.3 °F 59.3 °F 29.75 in SW 3.0 mph 5.0 mph 93% 0.06 in
08:59 61.4 °F 59.4 °F 29.75 in SW 3.0 mph 5.0 mph 93% 0.04 in
09:04 61.5 °F 59.5 °F 29.76 in SW 2.0 mph 5.0 mph 93% 0.02 in
09:09 61.7 °F 59.7 °F 29.76 in SW 2.0 mph 5.0 mph 93% 0.02 in
09:14 61.7 °F 59.7 °F 29.76 in SW 3.0 mph 7.0 mph 93% 0.01 in
09:19 61.7 °F 59.7 °F 29.76 in SSW 1.0 mph 6.0 mph 93% 0.01 in
09:24 62.0 °F 59.6 °F 29.76 in SW 3.0 mph 6.0 mph 92% 0.01 in
09:29 62.2 °F 60.2 °F 29.75 in SW 3.0 mph 7.0 mph 93% 0.01 in
09:34 62.3 °F 59.9 °F 29.76 in SW 5.0 mph 9.0 mph 92% 0.00 in
09:39 62.1 °F 59.7 °F 29.76 in WSW 3.0 mph 9.0 mph 92% 0.00 in
09:44 62.1 °F 59.7 °F 29.76 in SW 4.0 mph 9.0 mph 92% 0.00 in
09:49 61.5 °F 59.2 °F 29.76 in SW 5.0 mph 13.0 mph 92% 0.00 in
09:54 61.0 °F 58.7 °F 29.76 in SW 6.0 mph 13.0 mph 92% 0.00 in
09:59 60.6 °F 58.3 °F 29.77 in SW 7.0 mph 15.0 mph 92% 0.00 in
10:04 60.3 °F 58.0 °F 29.77 in SW 8.0 mph 15.0 mph 92% 0.00 in
10:09 60.0 °F 57.7 °F 29.77 in SW 12.0 mph 12.0 mph 92% 0.00 in
10:14 59.6 °F 57.3 °F 29.77 in WSW 6.0 mph 12.0 mph 92% 0.00 in
10:19 59.5 °F 57.2 °F 29.77 in WSW 5.0 mph 15.0 mph 92% 0.00 in
10:24 59.7 °F 57.7 °F 29.77 in SW 12.0 mph 16.0 mph 93% 0.00 in
10:29 59.5 °F 57.5 °F 29.77 in West 6.0 mph 12.0 mph 93% 0.00 in
10:34 59.4 °F 57.1 °F 29.77 in SW 3.0 mph 16.0 mph 92% 0.00 in
10:39 59.3 °F 57.0 °F 29.77 in West 5.0 mph 15.0 mph 92% 0.00 in
10:44 59.3 °F 57.3 °F 29.77 in SW 7.0 mph 15.0 mph 93% 0.00 in
10:49 59.4 °F 57.4 °F 29.77 in SW 6.0 mph 13.0 mph 93% 0.00 in
10:54 59.4 °F 57.4 °F 29.78 in SW 6.0 mph 15.0 mph 93% 0.00 in
10:59 59.3 °F 57.3 °F 29.78 in SW 7.0 mph 15.0 mph 93% 0.00 in
11:04 59.3 °F 57.3 °F 29.79 in SW 7.0 mph 13.0 mph 93% 0.00 in
11:09 59.1 °F 57.1 °F 29.79 in SSW 7.0 mph 13.0 mph 93% 0.00 in
11:14 59.3 °F 57.3 °F 29.79 in WSW 6.0 mph 13.0 mph 93% 0.00 in
11:19 59.4 °F 57.4 °F 29.79 in WSW 5.0 mph 10.0 mph 93% 0.00 in
11:24 59.4 °F 57.4 °F 29.79 in WSW 5.0 mph 11.0 mph 93% 0.00 in
11:29 59.4 °F 57.4 °F 29.80 in WSW 6.0 mph 12.0 mph 93% 0.00 in
11:34 59.6 °F 57.6 °F 29.81 in West 6.0 mph 14.0 mph 93% 0.00 in
11:39 60.0 °F 58.0 °F 29.81 in West 5.0 mph 13.0 mph 93% 0.00 in
11:44 60.4 °F 58.4 °F 29.81 in WSW 6.0 mph 13.0 mph 93% 0.00 in
11:49 60.7 °F 58.4 °F 29.81 in West 7.0 mph 9.0 mph 92% 0.00 in
11:54 60.8 °F 58.5 °F 29.81 in SW 5.0 mph 12.0 mph 92% 0.00 in
11:59 61.1 °F 58.1 °F 29.81 in SSW 5.0 mph 12.0 mph 90% 0.00 in
12:04 62.1 °F 58.8 °F 29.81 in WSW 6.0 mph 11.0 mph 89% 0.00 in
12:09 62.2 °F 58.6 °F 29.81 in SW 10.0 mph 13.0 mph 88% 0.00 in
12:14 61.9 °F 58.3 °F 29.81 in SW 7.0 mph 14.0 mph 88% 0.00 in
12:19 62.5 °F 58.9 °F 29.81 in SW 6.0 mph 14.0 mph 88% 0.00 in
12:24 62.7 °F 58.8 °F 29.82 in WSW 5.0 mph 11.0 mph 87% 0.00 in
12:29 62.7 °F 58.1 °F 29.81 in SW 6.0 mph 15.0 mph 85% 0.00 in
12:34 63.6 °F 58.7 °F 29.81 in SW 8.0 mph 15.0 mph 84% 0.00 in
12:39 64.8 °F 59.2 °F 29.82 in WSW 7.0 mph 15.0 mph 82% 0.00 in
12:44 64.1 °F 57.8 °F 29.82 in WSW 10.0 mph 13.0 mph 80% 0.00 in
12:49 64.6 °F 58.6 °F 29.81 in West 4.0 mph 15.0 mph 81% 0.00 in
12:54 65.7 °F 59.7 °F 29.82 in West 6.0 mph 12.0 mph 81% 0.00 in
12:59 66.5 °F 59.4 °F 29.82 in West 9.0 mph 13.0 mph 78% 0.00 in
13:04 65.6 °F 57.8 °F 29.82 in SW 6.0 mph 14.0 mph 76% 0.00 in
13:09 65.9 °F 58.5 °F 29.83 in West 10.0 mph 15.0 mph 77% 0.00 in
13:14 65.6 °F 58.6 °F 29.83 in WSW 8.0 mph 15.0 mph 78% 0.00 in
13:19 65.8 °F 58.7 °F 29.83 in SW 7.0 mph 15.0 mph 78% 0.00 in
13:24 65.8 °F 57.7 °F 29.82 in SW 7.0 mph 14.0 mph 75% 0.00 in
13:29 65.9 °F 58.8 °F 29.82 in West 3.0 mph 14.0 mph 78% 0.00 in
13:34 66.2 °F 58.4 °F 29.82 in SW 7.0 mph 16.0 mph 76% 0.00 in
13:39 66.6 °F 59.2 °F 29.82 in SW 8.0 mph 13.0 mph 77% 0.00 in
13:44 66.8 °F 58.6 °F 29.82 in WSW 7.0 mph 13.0 mph 75% 0.00 in
13:54 67.4 °F 58.1 °F 29.82 in SSW 5.0 mph 13.0 mph 72% 0.00 in
13:59 67.6 °F 59.0 °F 29.82 in SW 7.0 mph 14.0 mph 74% 0.00 in
14:04 67.7 °F 57.2 °F 29.82 in West 6.0 mph 20.0 mph 69% 0.00 in
14:09 68.2 °F 59.2 °F 29.82 in South 5.0 mph 12.0 mph 73% 0.00 in
14:14 68.1 °F 58.3 °F 29.82 in SW 7.0 mph 16.0 mph 71% 0.00 in
14:19 67.6 °F 57.9 °F 29.82 in SW 8.0 mph 16.0 mph 71% 0.00 in
14:24 67.5 °F 57.8 °F 29.83 in WSW 9.0 mph 20.0 mph 71% 0.00 in
14:29 67.7 °F 58.3 °F 29.83 in WSW 2.0 mph 16.0 mph 72% 0.00 in
14:34 66.5 °F 57.2 °F 29.83 in SW 8.0 mph 18.0 mph 72% 0.00 in
14:39 66.8 °F 57.9 °F 29.83 in WSW 8.0 mph 17.0 mph 73% 0.00 in
14:44 67.4 °F 58.1 °F 29.83 in WSW 8.0 mph 17.0 mph 72% 0.00 in
14:49 68.0 °F 59.0 °F 29.83 in WSW 8.0 mph 16.0 mph 73% 0.00 in
14:54 67.4 °F 58.1 °F 29.83 in WSW 7.0 mph 17.0 mph 72% 0.00 in
14:59 67.1 °F 58.2 °F 29.83 in WSW 9.0 mph 17.0 mph 73% 0.00 in
15:04 68.0 °F 59.0 °F 29.83 in West 6.0 mph 11.0 mph 73% 0.00 in
15:09 68.0 °F 58.2 °F 29.83 in WSW 5.0 mph 15.0 mph 71% 0.00 in
15:14 67.1 °F 57.4 °F 29.84 in SW 7.0 mph 15.0 mph 71% 0.00 in
15:19 67.4 °F 58.1 °F 29.84 in SW 7.0 mph 16.0 mph 72% 0.00 in
15:24 67.9 °F 58.5 °F 29.84 in West 13.0 mph 14.0 mph 72% 0.00 in
15:29 67.9 °F 58.5 °F 29.84 in WSW 5.0 mph 15.0 mph 72% 0.00 in
15:34 68.2 °F 58.0 °F 29.84 in WSW 11.0 mph 15.0 mph 70% 0.00 in
15:39 67.7 °F 57.6 °F 29.84 in West 5.0 mph 15.0 mph 70% 0.00 in
15:44 67.9 °F 56.9 °F 29.84 in WSW 8.0 mph 17.0 mph 68% 0.00 in
15:49 68.5 °F 57.5 °F 29.84 in WSW 7.0 mph 17.0 mph 68% 0.00 in
15:54 68.4 °F 56.6 °F 29.84 in SW 7.0 mph 14.0 mph 66% 0.00 in
15:59 68.7 °F 55.6 °F 29.84 in SSW 7.0 mph 18.0 mph 63% 0.00 in
16:04 68.8 °F 55.7 °F 29.84 in SW 7.0 mph 18.0 mph 63% 0.00 in
16:09 68.7 °F 55.6 °F 29.84 in WNW 5.0 mph 17.0 mph 63% 0.00 in
16:14 68.8 °F 54.8 °F 29.84 in WSW 7.0 mph 17.0 mph 61% 0.00 in
16:19 68.5 °F 54.5 °F 29.85 in SW 7.0 mph 14.0 mph 61% 0.00 in
16:24 68.7 °F 54.3 °F 29.85 in WSW 8.0 mph 18.0 mph 60% 0.00 in
16:29 68.8 °F 53.4 °F 29.85 in West 10.0 mph 13.0 mph 58% 0.00 in
16:34 68.8 °F 52.9 °F 29.86 in SSW 13.0 mph 21.0 mph 57% 0.00 in
16:39 68.7 °F 52.4 °F 29.86 in WSW 9.0 mph 18.0 mph 56% 0.00 in
16:44 68.6 °F 51.8 °F 29.85 in WSW 10.0 mph 19.0 mph 55% 0.00 in
16:49 68.9 °F 52.1 °F 29.85 in WSW 9.0 mph 19.0 mph 55% 0.00 in
16:54 69.2 °F 52.3 °F 29.86 in WSW 9.0 mph 17.0 mph 55% 0.00 in
16:59 69.8 °F 52.9 °F 29.86 in WSW 8.0 mph 17.0 mph 55% 0.00 in
17:04 70.0 °F 52.6 °F 29.86 in WSW 6.0 mph 14.0 mph 54% 0.00 in
17:09 69.8 °F 52.4 °F 29.86 in SW 7.0 mph 17.0 mph 54% 0.00 in
17:14 70.0 °F 52.6 °F 29.86 in West 4.0 mph 12.0 mph 54% 0.00 in
17:19 70.3 °F 52.9 °F 29.86 in SW 6.0 mph 11.0 mph 54% 0.00 in
17:24 70.8 °F 51.8 °F 29.85 in SW 5.0 mph 15.0 mph 51% 0.00 in
17:29 71.1 °F 52.0 °F 29.85 in SW 9.0 mph 12.0 mph 51% 0.00 in
17:34 71.2 °F 52.7 °F 29.86 in WSW 4.0 mph 16.0 mph 52% 0.00 in
17:39 71.6 °F 51.4 °F 29.86 in WSW 4.0 mph 16.0 mph 49% 0.00 in
17:44 71.7 °F 50.4 °F 29.86 in WSW 7.0 mph 16.0 mph 47% 0.00 in
17:49 71.7 °F 49.8 °F 29.86 in SW 7.0 mph 18.0 mph 46% 0.00 in
17:54 71.9 °F 49.4 °F 29.86 in SW 7.0 mph 18.0 mph 45% 0.00 in
17:59 72.1 °F 49.6 °F 29.86 in WSW 6.0 mph 14.0 mph 45% 0.00 in
18:04 71.6 °F 48.5 °F 29.86 in WNW 6.0 mph 13.0 mph 44% 0.00 in
18:09 71.2 °F 49.9 °F 29.86 in West 4.0 mph 13.0 mph 47% 0.00 in
18:14 71.0 °F 48.6 °F 29.85 in WSW 6.0 mph 13.0 mph 45% 0.00 in
18:19 71.0 °F 49.2 °F 29.85 in WSW 6.0 mph 13.0 mph 46% 0.00 in
18:24 71.2 °F 48.2 °F 29.85 in SW 6.0 mph 12.0 mph 44% 0.00 in
18:29 71.3 °F 47.6 °F 29.85 in WSW 4.0 mph 14.0 mph 43% 0.00 in
18:34 71.2 °F 46.9 °F 29.85 in WSW 5.0 mph 10.0 mph 42% 0.00 in
18:39 71.3 °F 46.4 °F 29.85 in WSW 3.0 mph 13.0 mph 41% 0.00 in
18:44 71.4 °F 47.7 °F 29.85 in SW 6.0 mph 8.0 mph 43% 0.00 in
18:49 71.5 °F 47.8 °F 29.85 in SW 4.0 mph 12.0 mph 43% 0.00 in
18:54 71.6 °F 46.0 °F 29.85 in SW 5.0 mph 12.0 mph 40% 0.00 in
18:59 71.8 °F 46.8 °F 29.85 in SW 2.0 mph 8.0 mph 41% 0.00 in
19:04 71.9 °F 46.3 °F 29.85 in SW 5.0 mph 5.0 mph 40% 0.00 in
19:09 71.9 °F 46.3 °F 29.85 in SW 1.0 mph 5.0 mph 40% 0.00 in
19:14 71.5 °F 45.2 °F 29.85 in SW 2.0 mph 4.0 mph 39% 0.00 in
19:19 71.5 °F 45.2 °F 29.84 in SW 2.0 mph 5.0 mph 39% 0.00 in
19:24 71.7 °F 44.7 °F 29.84 in SW 2.0 mph 5.0 mph 38% 0.00 in
19:29 71.6 °F 45.3 °F 29.84 in SW 2.0 mph 5.0 mph 39% 0.00 in
19:34 71.8 °F 44.8 °F 29.84 in WSW 2.0 mph 6.0 mph 38% 0.00 in
19:39 71.7 °F 44.0 °F 29.84 in SW 2.0 mph 6.0 mph 37% 0.00 in
19:44 71.7 °F 46.1 °F 29.85 in SW 4.0 mph 4.0 mph 40% 0.00 in
19:49 71.6 °F 45.3 °F 29.85 in SW 1.0 mph 4.0 mph 39% 0.00 in
19:54 71.4 °F 45.1 °F 29.85 in SW 1.0 mph 3.0 mph 39% 0.00 in
19:59 71.0 °F 46.1 °F 29.85 in SW 1.0 mph 3.0 mph 41% 0.00 in
20:04 70.4 °F 45.6 °F 29.85 in SW 2.0 mph 2.0 mph 41% 0.00 in
20:09 70.1 °F 45.9 °F 29.85 in SW 1.0 mph 3.0 mph 42% 0.00 in
20:14 69.5 °F 46.6 °F 29.85 in Calm   2.0 mph 44% 0.00 in
20:19 69.1 °F 46.3 °F 29.85 in Calm   2.0 mph 44% 0.00 in
20:24 68.6 °F 46.4 °F 29.85 in Calm     45% 0.00 in
20:29 68.1 °F 45.9 °F 29.85 in Calm     45% 0.00 in
20:34 68.1 °F 45.9 °F 29.85 in Calm     45% 0.00 in
20:39 67.7 °F 46.7 °F 29.85 in Calm     47% 0.00 in
20:44 67.4 °F 47.0 °F 29.85 in Calm     48% 0.00 in
20:49 67.2 °F 47.4 °F 29.85 in SSW 1.0 mph 3.0 mph 49% 0.00 in
20:54 67.1 °F 47.8 °F 29.85 in WSW 1.0 mph 6.0 mph 50% 0.00 in
20:59 66.9 °F 47.6 °F 29.85 in Calm   2.0 mph 50% 0.00 in
21:04 66.6 °F 47.4 °F 29.85 in Calm     50% 0.00 in
21:09 66.4 °F 47.7 °F 29.85 in SW 1.0 mph 3.0 mph 51% 0.00 in
21:14 66.6 °F 47.9 °F 29.85 in SSW 4.0 mph 5.0 mph 51% 0.00 in
21:19 67.0 °F 48.8 °F 29.85 in SSW 2.0 mph 6.0 mph 52% 0.00 in
21:24 67.2 °F 49.5 °F 29.85 in SSW 2.0 mph 6.0 mph 53% 0.00 in
21:29 66.8 °F 49.6 °F 29.85 in SSW 1.0 mph 6.0 mph 54% 0.00 in
21:34 66.9 °F 50.2 °F 29.85 in SSW 1.0 mph 4.0 mph 55% 0.00 in
21:39 67.0 °F 50.3 °F 29.85 in SSW 1.0 mph 5.0 mph 55% 0.00 in
21:44 67.2 °F 51.0 °F 29.86 in Calm   4.0 mph 56% 0.00 in
21:49 67.2 °F 51.4 °F 29.86 in SSW 1.0 mph 4.0 mph 57% 0.00 in
21:54 67.1 °F 50.9 °F 29.86 in SSW 1.0 mph 5.0 mph 56% 0.00 in
21:59 67.1 °F 51.4 °F 29.86 in South 2.0 mph 5.0 mph 57% 0.00 in
22:04 67.0 °F 51.7 °F 29.87 in South 1.0 mph 5.0 mph 58% 0.00 in
22:09 66.9 °F 51.6 °F 29.86 in SSW 3.0 mph 5.0 mph 58% 0.00 in
22:14 66.7 °F 51.9 °F 29.87 in SSW 1.0 mph 4.0 mph 59% 0.00 in
22:19 66.5 °F 51.7 °F 29.87 in SSW 2.0 mph 5.0 mph 59% 0.00 in
22:24 66.7 °F 51.9 °F 29.87 in SSW 4.0 mph 9.0 mph 59% 0.00 in
22:29 66.9 °F 52.1 °F 29.87 in SSW 1.0 mph 5.0 mph 59% 0.00 in
22:34 66.9 °F 52.1 °F 29.87 in SSW 3.0 mph 6.0 mph 59% 0.00 in
22:39 66.8 °F 52.5 °F 29.87 in SSW 4.0 mph 6.0 mph 60% 0.00 in
22:44 66.5 °F 52.2 °F 29.87 in SSW 2.0 mph 6.0 mph 60% 0.00 in
22:49 66.7 °F 52.4 °F 29.87 in SSW 2.0 mph 6.0 mph 60% 0.00 in
22:54 66.5 °F 52.2 °F 29.87 in SW 2.0 mph 6.0 mph 60% 0.00 in
22:59 66.4 °F 52.5 °F 29.87 in SSW 1.0 mph 4.0 mph 61% 0.00 in
23:04 65.8 °F 52.4 °F 29.87 in SW 1.0 mph 4.0 mph 62% 0.00 in
23:09 65.2 °F 52.3 °F 29.87 in Calm   3.0 mph 63% 0.00 in
23:14 64.7 °F 52.2 °F 29.87 in Calm   2.0 mph 64% 0.00 in
23:19 64.5 °F 52.5 °F 29.87 in WSW 2.0 mph 4.0 mph 65% 0.00 in
23:24 64.3 °F 52.3 °F 29.88 in SW 1.0 mph 5.0 mph 65% 0.00 in
23:29 64.8 °F 52.8 °F 29.87 in SSW 1.0 mph 4.0 mph 65% 0.00 in
23:34 65.1 °F 52.6 °F 29.88 in SSW 3.0 mph 5.0 mph 64% 0.00 in
23:39 65.1 °F 52.6 °F 29.88 in SW 3.0 mph 6.0 mph 64% 0.00 in
23:44 65.1 °F 52.6 °F 29.88 in SSW 3.0 mph 6.0 mph 64% 0.00 in
23:49 65.1 °F 52.6 °F 29.88 in Calm   4.0 mph 64% 0.00 in
23:54 64.8 °F 52.8 °F 29.88 in SSW 1.0 mph 5.0 mph 65% 0.00 in
23:59 64.5 °F 52.9 °F 29.87 in SW 1.0 mph 5.0 mph 66% 0.00 in
Buffalo, New York, USA
Compliments of Weather Underground - 2.5 mb